Time;durP1;ratioP1;P1;durP2;ratioP2;P2;SDS_P1;SDS_P2;PMS_P1;PMS_P2;Temp;Humidity;BMP_temperature;BMP_pressure;BME280_temperature;BME280_humidity;BME280_pressure;Samples;Min_cycle;Max_cycle;Signal;HPM_P1;HPM_P2
2022/06/05 06:12:09;;;;;;;10.38;6.25;;;;;;;;;;6285407;22;19922;-79
2022/06/05 06:14:34;;;;;;;11.07;6.38;;;;;;;;;;6308618;22;20011;-78
2022/06/05 06:17:00;;;;;;;13.30;6.50;;;;;;;;;;6308637;22;20010;-79
2022/06/05 06:19:26;;;;;;;7.95;6.20;;;;;;;;;;6300415;22;20075;-80
2022/06/05 06:21:51;;;;;;;11.77;6.03;;;;;;;;;;6277924;22;20007;-79
2022/06/05 06:24:17;;;;;;;11.25;6.53;;;;;;;;;;6277950;22;20079;-78
2022/06/05 06:26:42;;;;;;;15.93;6.50;;;;;;;;;;6277672;22;19996;-81
2022/06/05 09:28:12;;;;;;;14.05;6.57;;;;;;;;;;6254992;22;20338;-87
2022/06/05 09:30:55;;;;;;;11.20;6.43;;;;;;;;;;6309309;22;20103;-86
2022/06/05 09:33:25;;;;;;;11.00;6.68;;;;;;;;;;6298500;22;20008;-86
2022/06/05 09:35:57;;;;;;;11.55;6.43;;;;;;;;;;6278037;22;20054;-84
2022/06/05 09:38:27;;;;;;;19.45;6.50;;;;;;;;;;6278982;22;20007;-84
2022/06/05 09:41:04;;;;;;;15.57;7.00;;;;;;;;;;6278663;22;20004;-84
2022/06/05 09:43:42;;;;;;;13.65;6.38;;;;;;;;;;6279630;22;20074;-83
2022/06/05 09:46:38;;;;;;;14.77;7.55;;;;;;;;;;6278512;22;20049;-87
2022/06/05 09:49:37;;;;;;;14.68;7.30;;;;;;;;;;6278136;22;20031;-89
2022/06/05 09:52:16;;;;;;;10.05;7.38;;;;;;;;;;6279775;22;20078;-88
2022/06/05 09:54:50;;;;;;;14.25;7.88;;;;;;;;;;6278983;22;20419;-93
2022/06/05 10:00:44;;;;;;;13.90;6.90;;;;;;;;;;6278060;22;20030;-81
2022/06/05 10:03:12;;;;;;;14.48;7.47;;;;;;;;;;6277077;22;20007;-84
2022/06/05 10:05:44;;;;;;;13.55;7.82;;;;;;;;;;6276971;22;20014;-88
2022/06/05 10:08:20;;;;;;;14.65;7.68;;;;;;;;;;6277228;22;20011;-87
2022/06/05 10:10:48;;;;;;;13.30;8.63;;;;;;;;;;6277895;22;20000;-81
2022/06/05 10:13:42;;;;;;;13.40;7.47;;;;;;;;;;6278059;22;19999;-86
2022/06/05 10:16:13;;;;;;;12.98;6.70;;;;;;;;;;6278245;22;20015;-87
2022/06/05 10:18:47;;;;;;;13.77;7.45;;;;;;;;;;6278153;22;20382;-84
2022/06/05 10:21:14;;;;;;;15.57;7.28;;;;;;;;;;6278687;22;20074;-90
2022/06/05 10:24:12;;;;;;;12.82;7.50;;;;;;;;;;6279145;22;20423;-88
2022/06/05 10:26:45;;;;;;;12.38;7.55;;;;;;;;;;6258276;22;20016;-84
2022/06/05 10:29:28;;;;;;;10.52;6.75;;;;;;;;;;6278363;22;20438;-84
2022/06/05 10:32:06;;;;;;;14.50;7.35;;;;;;;;;;6278190;22;20403;-87
2022/06/05 10:35:00;;;;;;;16.27;7.07;;;;;;;;;;6277983;22;19999;-87
2022/06/05 10:37:37;;;;;;;15.60;7.18;;;;;;;;;;6278585;22;19999;-85
2022/06/05 10:40:03;;;;;;;12.90;7.00;;;;;;;;;;6277704;22;20007;-83
2022/06/05 10:42:43;;;;;;;17.25;8.35;;;;;;;;;;6277624;22;20533;-85
2022/06/05 10:45:24;;;;;;;13.38;7.55;;;;;;;;;;6278254;22;20104;-87
2022/06/05 10:48:23;;;;;;;13.90;7.38;;;;;;;;;;6281035;22;20007;-80
2022/06/05 10:50:58;;;;;;;10.02;6.00;;;;;;;;;;6279394;22;20012;-88
2022/06/05 10:53:36;;;;;;;11.98;6.85;;;;;;;;;;6278632;22;20003;-88
2022/06/05 10:56:16;;;;;;;12.00;6.03;;;;;;;;;;6278581;22;20331;-85
2022/06/05 10:59:06;;;;;;;12.73;7.40;;;;;;;;;;6278547;22;20323;-85
2022/06/05 11:01:53;;;;;;;13.02;6.65;;;;;;;;;;6282415;22;20079;-96
2022/06/05 11:04:27;;;;;;;12.05;6.40;;;;;;;;;;6293791;22;20042;-84
2022/06/05 11:07:02;;;;;;;14.77;7.05;;;;;;;;;;6293927;22;20004;-87
2022/06/05 11:09:27;;;;;;;14.82;6.55;;;;;;;;;;6285527;22;20002;-83
2022/06/05 11:15:30;;;;;;;13.85;7.90;;;;;;;;;;6296840;22;20050;-91
2022/06/05 11:18:17;;;;;;;20.30;7.03;;;;;;;;;;6298383;22;20007;-87
2022/06/05 11:20:52;;;;;;;11.75;7.43;;;;;;;;;;6295133;22;20003;-89
2022/06/05 11:23:21;;;;;;;16.42;7.60;;;;;;;;;;6296144;22;20002;-89
2022/06/05 11:26:04;;;;;;;10.95;6.70;;;;;;;;;;6294900;22;20014;-79
2022/06/05 11:28:46;;;;;;;13.88;7.95;;;;;;;;;;6289579;22;20618;-89
2022/06/05 11:31:30;;;;;;;18.05;8.25;;;;;;;;;;6290003;22;20003;-79
2022/06/05 11:34:03;;;;;;;14.00;7.70;;;;;;;;;;6287356;22;20000;-84
2022/06/05 11:36:52;;;;;;;15.90;7.80;;;;;;;;;;6288650;22;20008;-89
2022/06/05 11:39:20;;;;;;;17.00;8.10;;;;;;;;;;6291038;22;20000;-89
2022/06/05 11:42:05;;;;;;;13.02;9.52;;;;;;;;;;6290646;22;19995;-79
2022/06/05 11:44:43;;;;;;;19.02;8.80;;;;;;;;;;6288463;22;20007;-90
2022/06/05 11:47:25;;;;;;;18.23;9.30;;;;;;;;;;6291185;22;20003;-87
2022/06/05 11:50:01;;;;;;;14.75;9.68;;;;;;;;;;6288701;22;20030;-92
2022/06/05 11:52:38;;;;;;;13.80;9.88;;;;;;;;;;6287682;22;20083;-90
2022/06/05 11:55:13;;;;;;;14.25;10.55;;;;;;;;;;6285182;22;20068;-90
2022/06/05 11:57:58;;;;;;;17.77;10.73;;;;;;;;;;6284969;22;20008;-91
2022/06/05 12:00:31;;;;;;;20.23;11.13;;;;;;;;;;6284327;22;19996;-86
2022/06/05 12:03:22;;;;;;;19.83;10.50;;;;;;;;;;6280361;22;20061;-83
2022/06/05 12:06:08;;;;;;;16.20;9.50;;;;;;;;;;6258763;22;20038;-79
2022/06/05 12:08:38;;;;;;;16.63;10.40;;;;;;;;;;6285091;22;20000;-88
2022/06/05 12:11:11;;;;;;;18.60;12.52;;;;;;;;;;6284233;22;20010;-85
2022/06/05 12:14:01;;;;;;;16.15;12.00;;;;;;;;;;6283354;22;20031;-80
2022/06/05 12:16:35;;;;;;;18.25;12.23;;;;;;;;;;6279127;22;20003;-86
2022/06/05 12:19:15;;;;;;;18.10;13.80;;;;;;;;;;6276926;22;20045;-80
2022/06/05 12:21:58;;;;;;;21.67;13.77;;;;;;;;;;6277330;22;19999;-85
2022/06/05 12:24:33;;;;;;;18.73;13.80;;;;;;;;;;6278185;22;20071;-94
2022/06/05 12:27:11;;;;;;;17.38;13.73;;;;;;;;;;6282490;22;20343;-88
2022/06/05 12:29:46;;;;;;;23.42;14.57;;;;;;;;;;6279826;22;20010;-81
2022/06/05 12:35:33;;;;;;;18.02;12.60;;;;;;;;;;6302291;22;20024;-93
2022/06/05 12:38:29;;;;;;;18.88;11.98;;;;;;;;;;6271755;22;20438;-87
2022/06/05 12:41:02;;;;;;;16.50;13.00;;;;;;;;;;6307965;22;20003;-81
2022/06/05 12:43:30;;;;;;;16.65;11.90;;;;;;;;;;6294523;22;20003;-82
2022/06/05 12:46:04;;;;;;;17.43;12.60;;;;;;;;;;6279074;22;20004;-80
2022/06/05 12:48:32;;;;;;;17.58;11.43;;;;;;;;;;6278501;22;20004;-78
2022/06/05 12:51:17;;;;;;;18.02;11.98;;;;;;;;;;6278984;22;20011;-78
2022/06/05 12:54:10;;;;;;;16.88;11.65;;;;;;;;;;6278350;22;20003;-83
2022/06/05 12:56:50;;;;;;;19.50;12.43;;;;;;;;;;6278402;22;20014;-85
2022/06/05 13:00:14;;;;;;;17.73;11.20;;;;;;;;;;6278312;22;20334;-82
2022/06/05 13:03:02;;;;;;;16.33;11.07;;;;;;;;;;6184620;23;20015;-84
2022/06/05 13:05:37;;;;;;;;;;;;;;;;;;6184602;23;20001;-80
2022/06/05 13:08:05;;;;;;;18.35;10.43;;;;;;;;;;6261467;22;19911;-79
2022/06/05 13:10:39;;;;;;;13.97;11.60;;;;;;;;;;6280650;22;20004;-78
2022/06/05 13:13:37;;;;;;;17.10;9.95;;;;;;;;;;6278301;22;20257;-80
2022/06/05 13:16:06;;;;;;;15.02;11.15;;;;;;;;;;6278747;22;20007;-79
2022/06/05 13:19:00;;;;;;;17.20;10.63;;;;;;;;;;6278460;22;20007;-80
2022/06/05 13:21:37;;;;;;;18.42;10.68;;;;;;;;;;6278111;22;20007;-80
2022/06/05 13:24:31;;;;;;;14.70;10.52;;;;;;;;;;6278075;22;20382;-82
2022/06/05 13:27:03;;;;;;;17.33;11.05;;;;;;;;;;6278834;22;20082;-92
2022/06/05 13:30:04;;;;;;;18.35;11.75;;;;;;;;;;6281782;22;20015;-81
2022/06/05 13:32:33;;;;;;;16.17;10.52;;;;;;;;;;6259146;22;20008;-82
2022/06/05 13:35:26;;;;;;;16.02;10.90;;;;;;;;;;6289516;22;20000;-81
2022/06/05 13:38:10;;;;;;;23.33;11.20;;;;;;;;;;6286414;22;20003;-81
2022/06/05 13:41:10;;;;;;;12.48;10.88;;;;;;;;;;6279193;22;20003;-83
2022/06/05 13:43:40;;;;;;;16.10;11.25;;;;;;;;;;6249214;22;20086;-86
2022/06/05 13:46:05;;;;;;;15.88;10.23;;;;;;;;;;6251356;22;20007;-79
2022/06/05 13:49:00;;;;;;;15.65;11.35;;;;;;;;;;6277935;22;20318;-83
2022/06/05 13:51:32;;;;;;;18.27;10.23;;;;;;;;;;6246700;22;20422;-84
2022/06/05 13:54:18;;;;;;;16.67;10.20;;;;;;;;;;6277753;22;20011;-80
2022/06/05 13:57:01;;;;;;;12.90;10.40;;;;;;;;;;6250059;22;20427;-82
2022/06/05 15:02:01;;;;;;;15.60;8.48;;;;;;;;;;6228398;22;20011;-84
2022/06/05 15:04:36;;;;;;;17.27;8.40;;;;;;;;;;6308715;22;20011;-79
2022/06/05 15:07:34;;;;;;;14.63;7.30;;;;;;;;;;6302572;22;20076;-84
2022/06/05 15:10:02;;;;;;;10.57;7.82;;;;;;;;;;6277562;22;20004;-82
2022/06/05 15:12:39;;;;;;;13.43;7.25;;;;;;;;;;6278292;22;20003;-86
2022/06/05 15:15:19;;;;;;;11.10;7.20;;;;;;;;;;6250806;22;20015;-90
2022/06/05 15:17:54;;;;;;;19.15;7.57;;;;;;;;;;6277794;22;20007;-88
2022/06/05 15:20:42;;;;;;;18.15;7.50;;;;;;;;;;6278612;22;20498;-85
2022/06/05 15:23:32;;;;;;;16.52;8.15;;;;;;;;;;6278301;22;20004;-88
2022/06/05 15:26:28;;;;;;;16.15;8.00;;;;;;;;;;6277461;22;20004;-83
2022/06/05 15:28:56;;;;;;;16.42;7.78;;;;;;;;;;6276190;22;20007;-79
2022/06/05 15:31:43;;;;;;;11.38;7.38;;;;;;;;;;6276939;22;20022;-81
2022/06/05 15:34:46;;;;;;;14.98;6.72;;;;;;;;;;6276966;22;19995;-80
2022/06/05 15:37:44;;;;;;;15.35;6.35;;;;;;;;;;6276828;22;20011;-81
2022/06/05 15:40:31;;;;;;;18.45;6.95;;;;;;;;;;6277058;22;20437;-80
2022/06/05 15:43:11;;;;;;;14.18;6.40;;;;;;;;;;6277001;22;20000;-80
2022/06/05 15:45:57;;;;;;;15.10;6.18;;;;;;;;;;6249715;22;20326;-78
2022/06/05 15:48:40;;;;;;;16.08;6.38;;;;;;;;;;6249683;22;20099;-81
2022/06/05 15:51:23;;;;;;;16.92;7.15;;;;;;;;;;6276884;22;20010;-77
2022/06/05 15:54:12;;;;;;;12.63;6.00;;;;;;;;;;6276764;22;20003;-79
2022/06/05 16:00:25;;;;;;;13.52;7.38;;;;;;;;;;6276809;22;20014;-81
2022/06/05 16:02:54;;;;;;;11.32;6.13;;;;;;;;;;6276488;22;20046;-80
2022/06/05 16:05:24;;;;;;;16.42;7.15;;;;;;;;;;6277556;22;20007;-81
2022/06/05 16:07:58;;;;;;;12.68;6.40;;;;;;;;;;6277620;22;20423;-84
2022/06/05 16:10:29;;;;;;;13.38;5.93;;;;;;;;;;6276320;22;20058;-82
2022/06/05 16:12:57;;;;;;;13.05;6.50;;;;;;;;;;6276586;22;20030;-82
2022/06/05 16:16:21;;;;;;;13.30;5.72;;;;;;;;;;6278018;22;20007;-90
2022/06/05 16:18:53;;;;;;;11.82;6.30;;;;;;;;;;6039785;23;20107;-85
2022/06/05 16:21:21;;;;;;;13.68;6.05;;;;;;;;;;6041206;23;20018;-83
2022/06/05 16:24:12;;;;;;;23.52;8.32;;;;;;;;;;6040076;23;20402;-79
2022/06/05 16:26:51;;;;;;;15.52;5.15;;;;;;;;;;6031936;23;20015;-85
2022/06/05 16:29:20;;;;;;;12.98;5.60;;;;;;;;;;6039157;23;20067;-88
2022/06/05 16:31:48;;;;;;;10.50;4.93;;;;;;;;;;6039198;23;20012;-83
2022/06/05 16:40:20;;;;;;;12.13;4.32;;;;;;;;;;6039280;23;20359;-84
2022/06/05 16:42:46;;;;;;;13.27;4.57;;;;;;;;;;6039315;23;20147;-85
2022/06/05 16:45:12;;;;;;;9.93;4.35;;;;;;;;;;6039572;23;20048;-88
2022/06/05 16:47:42;;;;;;;9.98;3.22;;;;;;;;;;6041074;23;20511;-84
2022/06/05 16:50:13;;;;;;;15.23;3.58;;;;;;;;;;6110600;23;20010;-89
2022/06/05 16:52:42;;;;;;;13.27;3.65;;;;;;;;;;6125758;23;20010;-84
2022/06/05 16:55:22;;;;;;;7.82;3.00;;;;;;;;;;6196453;22;20008;-83
2022/06/05 16:57:49;;;;;;;10.30;4.38;;;;;;;;;;6278536;22;20075;-82
2022/06/05 17:00:17;;;;;;;8.07;3.30;;;;;;;;;;6278402;22;20012;-85
2022/06/05 17:02:53;;;;;;;16.88;3.70;;;;;;;;;;6278541;22;20012;-86
2022/06/05 17:05:36;;;;;;;7.70;3.17;;;;;;;;;;6278582;22;20080;-87
2022/06/05 17:08:08;;;;;;;13.70;3.90;;;;;;;;;;6278667;22;19999;-87
2022/06/05 17:10:39;;;;;;;9.85;3.22;;;;;;;;;;6251583;22;20008;-84
2022/06/05 17:13:24;;;;;;;15.57;3.70;;;;;;;;;;6278764;22;20035;-85
2022/06/05 17:15:50;;;;;;;9.45;3.25;;;;;;;;;;6278340;22;20023;-86
2022/06/05 17:18:21;;;;;;;6.93;3.78;;;;;;;;;;6278531;22;20331;-86
2022/06/05 17:20:56;;;;;;;11.10;4.03;;;;;;;;;;6251540;22;20073;-86
2022/06/05 17:23:24;;;;;;;7.60;3.80;;;;;;;;;;6278361;22;20431;-85
2022/06/05 17:26:18;;;;;;;7.03;3.83;;;;;;;;;;6278256;22;19999;-85
2022/06/05 17:28:43;;;;;;;11.25;3.70;;;;;;;;;;6278309;22;19999;-83
2022/06/05 17:31:37;;;;;;;7.40;3.45;;;;;;;;;;6278256;22;20006;-83
2022/06/05 17:34:43;;;;;;;13.98;3.58;;;;;;;;;;6278265;22;20030;-83
2022/06/05 17:37:26;;;;;;;10.23;3.42;;;;;;;;;;6278388;22;20010;-83
2022/06/05 17:40:03;;;;;;;7.65;4.05;;;;;;;;;;6278373;22;20010;-85
2022/06/05 17:42:51;;;;;;;6.13;3.20;;;;;;;;;;6278176;22;20545;-84
2022/06/05 17:45:35;;;;;;;6.67;3.50;;;;;;;;;;6278519;22;20338;-83
2022/06/05 17:48:30;;;;;;;8.95;3.47;;;;;;;;;;6250976;22;20236;-83
2022/06/05 17:51:13;;;;;;;7.57;3.50;;;;;;;;;;6190508;22;20003;-87
2022/06/05 17:53:46;;;;;;;8.73;3.90;;;;;;;;;;6278423;22;20078;-87
2022/06/05 17:56:21;;;;;;;9.50;3.47;;;;;;;;;;6277889;22;20019;-85
2022/06/05 17:58:48;;;;;;;6.75;3.70;;;;;;;;;;6276656;22;20027;-86
2022/06/05 18:01:25;;;;;;;6.20;3.20;;;;;;;;;;6276295;22;20039;-86
2022/06/05 18:03:51;;;;;;;7.65;3.55;;;;;;;;;;6276764;22;20011;-87
2022/06/05 18:06:31;;;;;;;10.85;5.63;;;;;;;;;;6276382;22;20004;-88
2022/06/05 18:09:19;;;;;;;8.80;3.63;;;;;;;;;;6276477;22;20012;-84
2022/06/05 18:11:49;;;;;;;9.57;3.85;;;;;;;;;;6276497;22;20000;-85
2022/06/05 18:14:29;;;;;;;6.85;3.90;;;;;;;;;;6276369;22;20000;-86
2022/06/05 18:16:58;;;;;;;8.07;4.15;;;;;;;;;;6276626;22;20449;-84
2022/06/05 18:19:28;;;;;;;5.22;3.03;;;;;;;;;;6276209;22;20003;-84
2022/06/05 18:21:58;;;;;;;6.40;3.22;;;;;;;;;;6276562;22;20027;-83
2022/06/05 18:24:35;;;;;;;6.50;3.80;;;;;;;;;;6276452;22;20098;-83
2022/06/05 18:27:17;;;;;;;4.47;2.92;;;;;;;;;;6276383;22;20019;-83
2022/06/05 18:29:55;;;;;;;5.55;2.70;;;;;;;;;;6276034;22;19996;-83
2022/06/05 18:32:27;;;;;;;5.40;2.92;;;;;;;;;;6276355;22;19996;-83
2022/06/05 18:35:21;;;;;;;7.00;2.70;;;;;;;;;;6248896;22;20015;-83
2022/06/05 18:40:40;;;;;;;7.28;3.50;;;;;;;;;;6276430;22;20030;-83
2022/06/05 18:43:16;;;;;;;12.98;8.82;;;;;;;;;;6248655;22;20334;-86
2022/06/05 18:45:44;;;;;;;12.50;6.15;;;;;;;;;;6276453;22;20479;-85
2022/06/05 18:48:15;;;;;;;6.13;3.92;;;;;;;;;;6276325;22;20003;-85
2022/06/05 18:50:45;;;;;;;8.20;3.22;;;;;;;;;;6276390;22;20426;-85
2022/06/05 18:53:21;;;;;;;;;;;;;;;;;;6276692;22;19996;-85
2022/06/05 18:55:48;;;;;;;4.43;2.83;;;;;;;;;;6277386;22;19907;-83
2022/06/05 18:58:20;;;;;;;5.70;3.40;;;;;;;;;;6277448;22;20049;-85
2022/06/05 19:00:46;;;;;;;8.93;3.42;;;;;;;;;;6277426;22;20007;-85
2022/06/05 19:03:31;;;;;;;7.38;3.20;;;;;;;;;;6277463;22;20015;-84
2022/06/05 19:05:58;;;;;;;6.43;4.00;;;;;;;;;;6277365;22;20015;-87
2022/06/05 19:08:38;;;;;;;5.28;3.75;;;;;;;;;;6277325;22;20334;-85
2022/06/05 19:11:20;;;;;;;4.88;3.15;;;;;;;;;;6250302;22;20013;-85
2022/06/05 19:14:01;;;;;;;6.90;2.90;;;;;;;;;;6277395;22;20450;-85
2022/06/05 19:16:42;;;;;;;7.78;2.75;;;;;;;;;;6277320;22;20004;-84
2022/06/05 19:19:52;;;;;;;3.03;2.72;;;;;;;;;;6277355;22;20007;-86
2022/06/05 19:22:20;;;;;;;;;;;;;;;;;;6209751;22;20004;-84
2022/06/05 19:24:57;;;;;;;9.07;3.30;;;;;;;;;;6277526;22;19981;-86
2022/06/05 19:27:26;;;;;;;6.03;2.83;;;;;;;;;;6277279;22;20007;-86
2022/06/05 19:29:55;;;;;;;3.97;2.83;;;;;;;;;;6277842;22;20019;-87
2022/06/05 19:32:27;;;;;;;;;;;;;;;;;;6250579;22;20445;-86
2022/06/05 19:34:57;;;;;;;5.40;3.60;;;;;;;;;;6279613;22;19914;-87
2022/06/05 19:41:02;;;;;;;6.38;3.67;;;;;;;;;;6278423;22;20026;-85
2022/06/05 19:43:32;;;;;;;5.45;3.10;;;;;;;;;;6124105;23;20008;-83
2022/06/05 19:46:16;;;;;;;5.18;2.75;;;;;;;;;;6124415;23;20006;-80
2022/06/05 19:48:45;;;;;;;8.48;3.10;;;;;;;;;;6124487;23;20018;-80
2022/06/05 19:51:10;;;;;;;5.45;3.10;;;;;;;;;;6124608;23;20081;-82
2022/06/05 19:53:47;;;;;;;4.85;3.10;;;;;;;;;;6099607;23;20433;-81
2022/06/05 19:56:24;;;;;;;8.30;2.90;;;;;;;;;;6124309;23;20437;-81
2022/06/05 19:58:56;;;;;;;6.43;3.20;;;;;;;;;;6124365;23;20006;-81
2022/06/05 20:01:28;;;;;;;4.55;2.75;;;;;;;;;;6124512;23;20017;-82
2022/06/05 20:04:23;;;;;;;6.65;2.60;;;;;;;;;;6124306;23;20016;-81
2022/06/05 20:07:00;;;;;;;6.53;2.95;;;;;;;;;;6113443;23;20418;-81
2022/06/05 20:09:45;;;;;;;6.70;2.30;;;;;;;;;;6124433;23;20085;-81
2022/06/05 20:12:32;;;;;;;3.65;2.50;;;;;;;;;;6124476;23;20386;-85
2022/06/05 20:14:57;;;;;;;5.15;2.35;;;;;;;;;;6124394;23;19998;-83
2022/06/05 20:17:27;;;;;;;7.63;2.55;;;;;;;;;;6124068;23;20065;-83
2022/06/05 20:20:01;;;;;;;;;;;;;;;;;;6206108;23;20332;-84
2022/06/05 20:22:43;;;;;;;3.53;2.70;;;;;;;;;;6246329;23;19985;-83
2022/06/05 20:25:48;;;;;;;4.63;2.95;;;;;;;;;;6246019;23;20066;-83
2022/06/05 20:28:20;;;;;;;4.10;2.80;;;;;;;;;;6245394;22;20004;-83
2022/06/05 20:31:02;;;;;;;3.40;2.60;;;;;;;;;;6246456;23;20008;-81
2022/06/05 20:33:31;;;;;;;3.53;2.38;;;;;;;;;;6246232;23;20058;-82
2022/06/05 20:36:14;;;;;;;5.40;2.30;;;;;;;;;;6246053;23;20011;-81
2022/06/05 20:38:46;;;;;;;4.63;2.67;;;;;;;;;;6246132;22;20000;-82
2022/06/05 20:41:33;;;;;;;4.50;2.28;;;;;;;;;;6246620;23;20020;-81
2022/06/05 20:44:29;;;;;;;2.38;2.17;;;;;;;;;;6246029;23;20007;-82
2022/06/05 20:46:57;;;;;;;3.15;2.10;;;;;;;;;;6246185;22;20004;-82
2022/06/05 20:49:34;;;;;;;3.53;2.40;;;;;;;;;;6219432;23;20007;-82
2022/06/05 20:52:01;;;;;;;6.70;2.63;;;;;;;;;;6246285;23;20077;-81
2022/06/05 20:54:28;;;;;;;2.92;2.60;;;;;;;;;;6246156;23;20446;-82
2022/06/05 20:56:57;;;;;;;3.10;2.40;;;;;;;;;;6246311;22;20323;-80
2022/06/05 20:59:25;;;;;;;7.28;2.47;;;;;;;;;;6246015;23;20011;-82
2022/06/05 21:01:59;;;;;;;5.80;2.25;;;;;;;;;;6266472;22;20369;-82
2022/06/05 21:07:22;;;;;;;4.88;2.20;;;;;;;;;;6278805;22;20014;-82
2022/06/05 21:09:52;;;;;;;3.40;2.47;;;;;;;;;;6278714;22;20042;-82
2022/06/05 21:17:55;;;;;;;2.42;2.20;;;;;;;;;;6278742;22;20462;-82
2022/06/05 21:20:24;;;;;;;4.28;2.20;;;;;;;;;;6278623;22;20000;-82
2022/06/05 21:22:50;;;;;;;2.65;2.00;;;;;;;;;;6278617;22;20003;-81
2022/06/05 21:25:22;;;;;;;4.88;2.60;;;;;;;;;;6278622;22;20010;-82
2022/06/05 21:27:50;;;;;;;2.80;2.30;;;;;;;;;;6278111;22;20003;-80
2022/06/05 21:30:19;;;;;;;2.88;2.10;;;;;;;;;;6278032;22;20003;-82
2022/06/05 21:32:45;;;;;;;3.20;2.05;;;;;;;;;;6278329;22;20450;-83
